Time;durP1;ratioP1;P1;durP2;ratioP2;P2;SDS_P1;SDS_P2;PMS_P1;PMS_P2;Temp;Humidity;BMP_temperature;BMP_pressure;BME280_temperature;BME280_humidity;BME280_pressure;Samples;Min_cycle;Max_cycle;Signal;HPM_P1;HPM_P2
2023/04/08 00:01:19;;;;;;;5.40;2.85;;;;;;;;;;5042636;28;20834;-66
2023/04/08 00:03:45;;;;;;;3.13;2.67;;;;;;;;;;5042997;28;20044;-66
2023/04/08 00:06:11;;;;;;;3.95;3.33;;;;;;;;;;5043939;28;20389;-65
2023/04/08 00:08:37;;;;;;;3.88;3.00;;;;;;;;;;5044131;28;20045;-65
2023/04/08 00:11:03;;;;;;;2.60;2.40;;;;;;;;;;5042348;28;20120;-66
2023/04/08 00:13:30;;;;;;;2.63;2.30;;;;;;;;;;5043784;28;21671;-66
2023/04/08 00:15:56;;;;;;;2.50;1.92;;;;;;;;;;5043174;28;20479;-66
2023/04/08 00:18:22;;;;;;;3.30;2.67;;;;;;;;;;5042329;28;20053;-66
2023/04/08 00:20:48;;;;;;;3.80;3.15;;;;;;;;;;5040746;28;20132;-66
2023/04/08 00:23:14;;;;;;;2.95;2.38;;;;;;;;;;5043456;28;20060;-66
2023/04/08 00:25:40;;;;;;;3.78;2.85;;;;;;;;;;5043363;28;20433;-65
2023/04/08 00:28:06;;;;;;;2.97;2.67;;;;;;;;;;5043395;28;20049;-66
2023/04/08 00:30:32;;;;;;;4.97;3.28;;;;;;;;;;5044247;28;20057;-66
2023/04/08 00:32:58;;;;;;;3.60;2.90;;;;;;;;;;5042812;28;20037;-66
2023/04/08 00:35:24;;;;;;;4.15;3.67;;;;;;;;;;5041385;28;20056;-66
2023/04/08 00:37:50;;;;;;;3.67;3.38;;;;;;;;;;5040554;28;20167;-66
2023/04/08 00:40:16;;;;;;;3.58;3.20;;;;;;;;;;5042216;28;20037;-66
2023/04/08 00:42:42;;;;;;;3.13;2.83;;;;;;;;;;5043194;28;20045;-66
2023/04/08 00:45:08;;;;;;;2.72;2.53;;;;;;;;;;5042506;28;20041;-65
2023/04/08 00:47:35;;;;;;;3.08;2.63;;;;;;;;;;5041193;28;20579;-66
2023/04/08 00:50:02;;;;;;;4.85;3.95;;;;;;;;;;5042420;28;20136;-66
2023/04/08 00:52:28;;;;;;;4.15;3.85;;;;;;;;;;5041238;28;21603;-66
2023/04/08 00:54:55;;;;;;;4.38;3.95;;;;;;;;;;5041222;28;20102;-66
2023/04/08 00:57:21;;;;;;;3.20;2.90;;;;;;;;;;5042479;28;20056;-65
2023/04/08 00:59:47;;;;;;;5.07;3.55;;;;;;;;;;5038072;28;20060;-66
2023/04/08 01:02:32;;;;;;;3.05;2.72;;;;;;;;;;5042873;28;20033;-66
2023/04/08 01:05:03;;;;;;;3.17;2.70;;;;;;;;;;5042058;28;20037;-66
2023/04/08 01:07:34;;;;;;;4.15;3.75;;;;;;;;;;5042486;28;20052;-66
2023/04/08 01:10:20;;;;;;;3.90;3.42;;;;;;;;;;5042281;28;20120;-66
2023/04/08 01:12:50;;;;;;;4.15;3.30;;;;;;;;;;5042587;28;20099;-66
2023/04/08 01:15:16;;;;;;;3.65;3.22;;;;;;;;;;5039217;28;20091;-66
2023/04/08 01:17:42;;;;;;;3.38;2.90;;;;;;;;;;5042364;28;20041;-66
2023/04/08 01:20:09;;;;;;;3.55;3.25;;;;;;;;;;5040998;28;20043;-66
2023/04/08 01:22:48;;;;;;;3.58;2.88;;;;;;;;;;5042615;28;20091;-66
2023/04/08 01:25:19;;;;;;;3.38;3.08;;;;;;;;;;5041206;28;20163;-66
2023/04/08 01:27:47;;;;;;;3.33;3.03;;;;;;;;;;5041814;28;20441;-66
2023/04/08 01:30:15;;;;;;;3.28;2.97;;;;;;;;;;5040351;28;20076;-66
2023/04/08 01:32:42;;;;;;;3.08;2.78;;;;;;;;;;5041808;28;20102;-66
2023/04/08 01:35:09;;;;;;;2.95;2.58;;;;;;;;;;5041142;28;20072;-65
2023/04/08 01:37:35;;;;;;;4.45;3.63;;;;;;;;;;5042704;28;20045;-65
2023/04/08 01:40:02;;;;;;;4.90;4.10;;;;;;;;;;5042351;28;20121;-66
2023/04/08 01:42:28;;;;;;;4.25;3.83;;;;;;;;;;5042280;28;20037;-66
2023/04/08 01:44:55;;;;;;;4.30;3.63;;;;;;;;;;5040738;28;20053;-66
2023/04/08 01:47:22;;;;;;;6.72;5.05;;;;;;;;;;5042057;28;20553;-66
2023/04/08 01:49:49;;;;;;;3.45;3.15;;;;;;;;;;5041764;28;20037;-66
2023/04/08 01:52:16;;;;;;;5.22;3.58;;;;;;;;;;5040942;28;20056;-66
2023/04/08 01:54:42;;;;;;;3.75;3.22;;;;;;;;;;5042258;28;20036;-65
2023/04/08 01:57:09;;;;;;;3.75;3.45;;;;;;;;;;5040645;28;20036;-66
2023/04/08 01:59:38;;;;;;;3.13;2.83;;;;;;;;;;5042447;28;20053;-66
2023/04/08 02:02:06;;;;;;;3.13;2.78;;;;;;;;;;5042233;28;20040;-65
2023/04/08 02:04:33;;;;;;;3.40;3.10;;;;;;;;;;5045686;28;20499;-66
2023/04/08 02:07:00;;;;;;;3.60;3.28;;;;;;;;;;5046227;28;20037;-65
2023/04/08 02:09:26;;;;;;;3.00;2.72;;;;;;;;;;5046126;28;20088;-65
2023/04/08 02:11:52;;;;;;;3.40;3.10;;;;;;;;;;5044094;28;20098;-66
2023/04/08 02:14:18;;;;;;;4.20;3.10;;;;;;;;;;5043955;28;20073;-66
2023/04/08 02:16:50;;;;;;;3.45;3.15;;;;;;;;;;5046115;28;20087;-66
2023/04/08 02:19:27;;;;;;;2.75;2.55;;;;;;;;;;5044535;28;20144;-66
2023/04/08 02:21:57;;;;;;;3.55;3.25;;;;;;;;;;5044855;28;20033;-66
2023/04/08 02:24:23;;;;;;;3.95;3.28;;;;;;;;;;5044935;28;20079;-65
2023/04/08 02:26:50;;;;;;;3.65;3.35;;;;;;;;;;5045471;28;20041;-65
2023/04/08 02:29:17;;;;;;;3.28;3.00;;;;;;;;;;5045233;28;20045;-66
2023/04/08 02:31:44;;;;;;;5.93;3.30;;;;;;;;;;5044281;28;20487;-66
2023/04/08 02:34:11;;;;;;;5.45;3.92;;;;;;;;;;5045462;28;20037;-65
2023/04/08 02:36:37;;;;;;;3.97;3.58;;;;;;;;;;5045405;28;20041;-66
2023/04/08 02:39:04;;;;;;;6.03;4.28;;;;;;;;;;5041326;28;20057;-65
2023/04/08 02:41:30;;;;;;;4.10;3.50;;;;;;;;;;5045038;28;20041;-66
2023/04/08 02:43:56;;;;;;;4.53;4.13;;;;;;;;;;5045064;28;20048;-65
2023/04/08 02:46:22;;;;;;;4.47;4.07;;;;;;;;;;5044239;28;20553;-65
2023/04/08 02:48:49;;;;;;;4.20;3.80;;;;;;;;;;5043729;28;20564;-66
2023/04/08 02:51:15;;;;;;;4.90;4.30;;;;;;;;;;5044098;28;20036;-65
2023/04/08 02:53:41;;;;;;;4.00;3.58;;;;;;;;;;5045136;28;20403;-65
2023/04/08 02:56:10;;;;;;;5.93;4.15;;;;;;;;;;5044568;28;20044;-65
2023/04/08 02:58:36;;;;;;;4.43;4.03;;;;;;;;;;5044367;28;20132;-65
2023/04/08 03:01:02;;;;;;;4.00;3.60;;;;;;;;;;5043772;28;20128;-66
2023/04/08 03:03:29;;;;;;;4.50;4.10;;;;;;;;;;5044183;28;20052;-65
2023/04/08 03:05:55;;;;;;;6.72;4.60;;;;;;;;;;5044904;28;20098;-66
2023/04/08 03:08:22;;;;;;;4.60;4.10;;;;;;;;;;5043946;28;20128;-65
2023/04/08 03:10:48;;;;;;;4.38;3.97;;;;;;;;;;5044601;28;20076;-65
2023/04/08 03:13:14;;;;;;;4.07;3.55;;;;;;;;;;5042694;28;20487;-66
2023/04/08 03:15:40;;;;;;;4.55;4.15;;;;;;;;;;5044616;28;20049;-66
2023/04/08 03:18:06;;;;;;;4.20;3.80;;;;;;;;;;5044254;28;20047;-66
2023/04/08 03:20:32;;;;;;;4.72;4.32;;;;;;;;;;5043721;28;20052;-66
2023/04/08 03:22:58;;;;;;;4.63;4.15;;;;;;;;;;5044135;28;20045;-65
2023/04/08 03:25:25;;;;;;;5.95;4.82;;;;;;;;;;5044951;28;20596;-65
2023/04/08 03:27:51;;;;;;;5.82;5.22;;;;;;;;;;5043586;28;20201;-65
2023/04/08 03:30:17;;;;;;;7.38;6.00;;;;;;;;;;5043992;28;20102;-65
2023/04/08 03:32:43;;;;;;;6.03;5.28;;;;;;;;;;5044561;28;20132;-65
2023/04/08 03:35:09;;;;;;;5.63;4.72;;;;;;;;;;5043351;28;20127;-66
2023/04/08 03:37:35;;;;;;;6.53;4.65;;;;;;;;;;5044172;28;20085;-65
2023/04/08 03:40:01;;;;;;;6.13;5.40;;;;;;;;;;5044194;28;20122;-65
2023/04/08 03:42:27;;;;;;;5.60;4.95;;;;;;;;;;5043656;28;20059;-65
2023/04/08 03:44:53;;;;;;;5.43;4.93;;;;;;;;;;5044096;28;20158;-66
2023/04/08 03:47:19;;;;;;;6.43;5.60;;;;;;;;;;5044018;28;20300;-66
2023/04/08 03:49:45;;;;;;;6.15;5.50;;;;;;;;;;5042838;28;20269;-66
2023/04/08 03:52:11;;;;;;;5.70;5.15;;;;;;;;;;5044252;28;20132;-65
2023/04/08 03:54:37;;;;;;;6.07;5.47;;;;;;;;;;5042635;28;20513;-66
2023/04/08 03:57:03;;;;;;;6.50;5.20;;;;;;;;;;5043037;28;20087;-65
2023/04/08 03:59:29;;;;;;;6.18;5.57;;;;;;;;;;5044070;28;20041;-65
2023/04/08 04:01:55;;;;;;;6.15;5.55;;;;;;;;;;5043831;28;20036;-66
2023/04/08 04:04:21;;;;;;;6.55;5.95;;;;;;;;;;5042580;28;20060;-65
2023/04/08 04:06:47;;;;;;;6.70;5.45;;;;;;;;;;5042250;28;20048;-65
2023/04/08 04:09:14;;;;;;;5.55;4.68;;;;;;;;;;5043843;28;20099;-65
2023/04/08 04:11:40;;;;;;;5.50;5.00;;;;;;;;;;5039386;28;20049;-65
2023/04/08 04:14:06;;;;;;;5.18;4.50;;;;;;;;;;5043345;28;21047;-65
2023/04/08 04:16:32;;;;;;;4.55;4.03;;;;;;;;;;5042505;28;20098;-65
2023/04/08 04:18:58;;;;;;;4.72;4.32;;;;;;;;;;5043509;28;20118;-65
2023/04/08 04:21:24;;;;;;;4.30;3.88;;;;;;;;;;5042135;28;20487;-65
2023/04/08 04:23:50;;;;;;;4.97;4.45;;;;;;;;;;5042213;28;20386;-65
2023/04/08 04:26:16;;;;;;;4.55;4.15;;;;;;;;;;5042501;28;20045;-65
2023/04/08 04:28:42;;;;;;;4.93;4.35;;;;;;;;;;5044317;28;20399;-65
2023/04/08 04:31:08;;;;;;;5.07;4.57;;;;;;;;;;5042387;28;20068;-65
2023/04/08 04:33:34;;;;;;;4.82;4.32;;;;;;;;;;5043325;28;20052;-65
2023/04/08 04:36:00;;;;;;;4.88;4.38;;;;;;;;;;5043159;28;20082;-65
2023/04/08 04:38:26;;;;;;;5.13;4.63;;;;;;;;;;5042677;28;20056;-65
2023/04/08 04:40:52;;;;;;;6.55;5.82;;;;;;;;;;5040661;28;20407;-65
2023/04/08 04:43:18;;;;;;;5.72;5.22;;;;;;;;;;5042631;28;20056;-65
2023/04/08 04:45:44;;;;;;;6.13;5.50;;;;;;;;;;5041715;28;20048;-65
2023/04/08 04:48:10;;;;;;;4.78;4.25;;;;;;;;;;5042006;28;20045;-65
2023/04/08 04:50:36;;;;;;;5.40;4.90;;;;;;;;;;5042780;28;20056;-65
2023/04/08 04:53:02;;;;;;;5.45;4.65;;;;;;;;;;5042058;28;20041;-65
2023/04/08 04:55:28;;;;;;;4.85;4.38;;;;;;;;;;5043033;28;20052;-65
2023/04/08 04:57:54;;;;;;;4.75;4.30;;;;;;;;;;5042770;28;20044;-65
2023/04/08 05:00:20;;;;;;;5.05;4.55;;;;;;;;;;5041146;28;20189;-65
2023/04/08 05:02:46;;;;;;;5.68;4.40;;;;;;;;;;5040843;28;20045;-65
2023/04/08 05:05:12;;;;;;;4.68;4.28;;;;;;;;;;5042993;28;20139;-65
2023/04/08 05:07:38;;;;;;;4.57;4.18;;;;;;;;;;5040992;28;20525;-65
2023/04/08 05:10:05;;;;;;;4.35;3.95;;;;;;;;;;5042648;28;20159;-65
2023/04/08 05:12:31;;;;;;;4.97;4.40;;;;;;;;;;5042203;28;20055;-65
2023/04/08 05:15:00;;;;;;;4.50;3.88;;;;;;;;;;5041929;28;20057;-65
2023/04/08 05:17:27;;;;;;;5.47;4.50;;;;;;;;;;5041686;28;20511;-65
2023/04/08 05:19:52;;;;;;;4.20;3.80;;;;;;;;;;5041669;28;20689;-65
2023/04/08 05:22:18;;;;;;;4.78;4.05;;;;;;;;;;5038748;28;20037;-65
2023/04/08 05:24:45;;;;;;;4.28;3.60;;;;;;;;;;5040669;28;20049;-65
2023/04/08 05:27:11;;;;;;;4.05;3.75;;;;;;;;;;5041233;28;20560;-65
2023/04/08 05:29:37;;;;;;;3.50;3.20;;;;;;;;;;5042834;28;20136;-65
2023/04/08 05:32:02;;;;;;;3.75;3.35;;;;;;;;;;5040680;28;20053;-65
2023/04/08 05:34:30;;;;;;;4.15;3.75;;;;;;;;;;5042117;28;20044;-65
2023/04/08 05:36:56;;;;;;;3.80;3.40;;;;;;;;;;5042602;28;20048;-65
2023/04/08 05:39:22;;;;;;;4.38;3.92;;;;;;;;;;5044763;28;20052;-65
2023/04/08 05:41:48;;;;;;;4.00;3.30;;;;;;;;;;5042425;28;20033;-65
2023/04/08 05:44:14;;;;;;;6.40;4.68;;;;;;;;;;5046541;28;20048;-65
2023/04/08 05:46:40;;;;;;;4.25;3.60;;;;;;;;;;5046495;28;20040;-65
2023/04/08 05:49:06;;;;;;;4.00;3.60;;;;;;;;;;5045708;28;20596;-65
2023/04/08 05:51:32;;;;;;;3.70;3.25;;;;;;;;;;5045873;28;20142;-65
2023/04/08 05:53:58;;;;;;;3.95;3.50;;;;;;;;;;5046234;28;20785;-65
2023/04/08 05:56:25;;;;;;;4.03;3.63;;;;;;;;;;5045572;28;20049;-65
2023/04/08 05:58:51;;;;;;;4.55;4.07;;;;;;;;;;5043916;28;20044;-65
2023/04/08 06:01:17;;;;;;;3.97;3.58;;;;;;;;;;5046070;28;20044;-65
2023/04/08 06:03:43;;;;;;;3.58;3.05;;;;;;;;;;5046276;28;20510;-66
2023/04/08 06:06:13;;;;;;;3.63;3.25;;;;;;;;;;5045848;28;20045;-65
2023/04/08 06:08:39;;;;;;;4.07;3.67;;;;;;;;;;5046094;28;20159;-65
2023/04/08 06:11:05;;;;;;;4.07;3.67;;;;;;;;;;5045147;28;20049;-65
2023/04/08 06:13:32;;;;;;;4.30;3.90;;;;;;;;;;5043132;28;20060;-65
2023/04/08 06:15:58;;;;;;;5.55;4.65;;;;;;;;;;5045900;28;20037;-65
2023/04/08 06:18:24;;;;;;;4.72;4.13;;;;;;;;;;5046234;28;20491;-66
2023/04/08 06:20:50;;;;;;;5.13;3.70;;;;;;;;;;5043284;28;20053;-66
2023/04/08 06:23:16;;;;;;;5.32;4.63;;;;;;;;;;5044824;28;20456;-65
2023/04/08 06:25:42;;;;;;;4.72;4.00;;;;;;;;;;5044424;28;20048;-65
2023/04/08 06:28:08;;;;;;;4.13;3.72;;;;;;;;;;5044841;28;20383;-65
2023/04/08 06:30:34;;;;;;;5.45;4.85;;;;;;;;;;5045102;28;20081;-66
2023/04/08 06:33:00;;;;;;;7.20;6.05;;;;;;;;;;5045763;28;20403;-66
2023/04/08 06:35:26;;;;;;;6.80;6.10;;;;;;;;;;5043037;28;20037;-66
2023/04/08 06:37:52;;;;;;;7.15;6.07;;;;;;;;;;5045145;28;20041;-66
2023/04/08 06:40:18;;;;;;;7.47;6.68;;;;;;;;;;5046196;28;20116;-66
2023/04/08 06:42:47;;;;;;;7.30;6.53;;;;;;;;;;5044227;28;20045;-65
2023/04/08 06:45:14;;;;;;;7.82;5.63;;;;;;;;;;5045198;28;20510;-66
2023/04/08 06:47:40;;;;;;;10.70;8.25;;;;;;;;;;5044287;28;20053;-66
2023/04/08 06:50:06;;;;;;;12.15;10.15;;;;;;;;;;5041488;28;20410;-66
2023/04/08 06:52:32;;;;;;;10.75;8.50;;;;;;;;;;5042406;28;20103;-66
2023/04/08 06:54:58;;;;;;;10.95;9.48;;;;;;;;;;5045955;28;20040;-66
2023/04/08 06:57:24;;;;;;;10.70;9.57;;;;;;;;;;5045309;28;20049;-66
2023/04/08 06:59:52;;;;;;;13.07;11.57;;;;;;;;;;5044862;28;20081;-66
2023/04/08 07:02:18;;;;;;;17.75;13.63;;;;;;;;;;5038981;28;20037;-66
2023/04/08 07:04:44;;;;;;;13.98;12.50;;;;;;;;;;5045254;28;20113;-66
2023/04/08 07:07:10;;;;;;;10.98;9.48;;;;;;;;;;5044858;28;20155;-66
2023/04/08 07:09:36;;;;;;;13.57;10.43;;;;;;;;;;5045148;28;20790;-66
2023/04/08 07:12:03;;;;;;;11.98;10.57;;;;;;;;;;5044182;28;20036;-66
2023/04/08 07:14:29;;;;;;;12.75;11.32;;;;;;;;;;5040915;28;20402;-66
2023/04/08 07:16:55;;;;;;;10.85;9.73;;;;;;;;;;5042359;28;20045;-66
2023/04/08 07:19:23;;;;;;;10.38;8.95;;;;;;;;;;5043436;28;20049;-65
2023/04/08 07:21:49;;;;;;;11.48;10.27;;;;;;;;;;5043107;28;20048;-65
2023/04/08 07:24:15;;;;;;;9.32;8.38;;;;;;;;;;5044468;28;20395;-66
2023/04/08 07:26:41;;;;;;;7.80;7.00;;;;;;;;;;5044256;28;20052;-66
2023/04/08 07:29:07;;;;;;;9.18;8.27;;;;;;;;;;5043909;28;20707;-66
2023/04/08 07:31:33;;;;;;;7.53;6.82;;;;;;;;;;5043188;28;20056;-66
2023/04/08 07:33:59;;;;;;;8.98;7.47;;;;;;;;;;5043427;28;20087;-66
2023/04/08 07:36:27;;;;;;;7.40;6.70;;;;;;;;;;5042135;28;20124;-66
2023/04/08 07:38:53;;;;;;;7.32;6.68;;;;;;;;;;5043840;28;20045;-66
2023/04/08 07:41:20;;;;;;;8.35;7.55;;;;;;;;;;5041889;28;20052;-66
2023/04/08 07:43:46;;;;;;;9.43;8.45;;;;;;;;;;5043177;28;20064;-66
2023/04/08 07:46:12;;;;;;;11.77;9.32;;;;;;;;;;5043541;28;20041;-66
2023/04/08 07:48:38;;;;;;;11.10;9.93;;;;;;;;;;5042048;28;20074;-66
2023/04/08 07:51:05;;;;;;;11.02;9.48;;;;;;;;;;5042414;28;20073;-66
2023/04/08 07:53:32;;;;;;;10.68;9.40;;;;;;;;;;5043664;28;20057;-66
2023/04/08 07:55:58;;;;;;;11.73;9.73;;;;;;;;;;5043530;28;20048;-66
2023/04/08 07:58:24;;;;;;;10.43;8.23;;;;;;;;;;5042711;28;20037;-66
2023/04/08 08:00:50;;;;;;;9.05;8.15;;;;;;;;;;5040917;28;20056;-67
2023/04/08 08:03:16;;;;;;;9.35;8.35;;;;;;;;;;5042247;28;20423;-66
2023/04/08 08:05:42;;;;;;;9.48;8.05;;;;;;;;;;5044051;28;20063;-66
2023/04/08 08:08:10;;;;;;;8.63;7.68;;;;;;;;;;5044891;28;20033;-67
2023/04/08 08:10:37;;;;;;;8.43;7.47;;;;;;;;;;5029100;28;20049;-66
2023/04/08 08:13:04;;;;;;;8.77;7.50;;;;;;;;;;5034911;28;20050;-65
2023/04/08 08:15:30;;;;;;;10.40;9.30;;;;;;;;;;5038855;28;20049;-65
2023/04/08 08:17:56;;;;;;;10.70;9.25;;;;;;;;;;5045039;28;20053;-65
2023/04/08 08:20:22;;;;;;;11.63;9.48;;;;;;;;;;5045316;28;20053;-66
2023/04/08 08:22:48;;;;;;;9.55;8.43;;;;;;;;;;5045029;28;20037;-66
2023/04/08 08:25:14;;;;;;;9.65;8.65;;;;;;;;;;5046161;28;20052;-65
2023/04/08 08:27:41;;;;;;;9.05;7.97;;;;;;;;;;5044512;28;20586;-66
2023/04/08 08:30:08;;;;;;;8.55;7.57;;;;;;;;;;5043653;28;20172;-66
2023/04/08 08:32:34;;;;;;;8.80;7.90;;;;;;;;;;5034827;28;20049;-66
2023/04/08 08:35:00;;;;;;;8.90;7.65;;;;;;;;;;5042293;28;20099;-65
2023/04/08 08:37:26;;;;;;;10.85;9.32;;;;;;;;;;5043750;28;20049;-67
2023/04/08 08:39:52;;;;;;;9.60;8.13;;;;;;;;;;5044954;28;20053;-66
2023/04/08 08:42:20;;;;;;;9.23;7.32;;;;;;;;;;5043279;28;20056;-67
2023/04/08 08:44:46;;;;;;;9.32;7.30;;;;;;;;;;5038612;28;20061;-69
2023/04/08 08:47:12;;;;;;;8.60;7.07;;;;;;;;;;5039838;28;20037;-70
2023/04/08 08:49:38;;;;;;;10.75;8.15;;;;;;;;;;5040978;28;20049;-68
2023/04/08 08:52:05;;;;;;;8.43;7.07;;;;;;;;;;5035172;28;20167;-68
2023/04/08 08:54:31;;;;;;;8.10;7.28;;;;;;;;;;5038725;28;20059;-68
2023/04/08 08:56:57;;;;;;;10.82;9.57;;;;;;;;;;5045357;28;20052;-68
2023/04/08 08:59:23;;;;;;;9.80;8.65;;;;;;;;;;5039755;28;20041;-68
2023/04/08 09:01:50;;;;;;;10.77;8.23;;;;;;;;;;5044220;28;20099;-69
2023/04/08 09:04:18;;;;;;;10.15;9.02;;;;;;;;;;5044348;28;20131;-68
2023/04/08 09:07:04;;;;;;;9.02;7.80;;;;;;;;;;5044072;28;20048;-68
2023/04/08 09:09:47;;;;;;;9.95;8.48;;;;;;;;;;5045011;28;20075;-68
2023/04/08 09:12:13;;;;;;;10.10;8.40;;;;;;;;;;5044293;28;20033;-68
2023/04/08 09:14:39;;;;;;;9.25;7.38;;;;;;;;;;5045170;28;20045;-67
2023/04/08 09:17:05;;;;;;;10.63;9.43;;;;;;;;;;5043702;28;20047;-68
2023/04/08 09:19:31;;;;;;;10.25;9.13;;;;;;;;;;5042799;28;20045;-68
2023/04/08 09:22:07;;;;;;;9.18;8.23;;;;;;;;;;5043444;28;20544;-68
2023/04/08 09:24:34;;;;;;;9.52;8.13;;;;;;;;;;5043151;28;20368;-68
2023/04/08 09:27:00;;;;;;;10.93;8.68;;;;;;;;;;5042362;28;20124;-67
2023/04/08 09:29:26;;;;;;;8.70;7.85;;;;;;;;;;5043481;28;20051;-68
2023/04/08 09:31:54;;;;;;;7.20;6.50;;;;;;;;;;5043870;28;20048;-68
2023/04/08 09:34:22;;;;;;;7.57;6.72;;;;;;;;;;5044037;28;20119;-67
2023/04/08 09:36:48;;;;;;;7.88;7.00;;;;;;;;;;5045515;28;20041;-68
2023/04/08 09:39:14;;;;;;;6.75;6.05;;;;;;;;;;5045414;28;20055;-68
2023/04/08 09:41:40;;;;;;;5.60;5.05;;;;;;;;;;5044442;28;20780;-68
2023/04/08 09:44:08;;;;;;;8.25;6.80;;;;;;;;;;5044740;28;20076;-68
2023/04/08 09:46:55;;;;;;;8.77;7.57;;;;;;;;;;5044881;28;20037;-68
2023/04/08 09:49:26;;;;;;;6.70;5.95;;;;;;;;;;5044568;28;20143;-68
2023/04/08 09:51:59;;;;;;;10.35;6.97;;;;;;;;;;5045091;28;20045;-68
2023/04/08 09:54:31;;;;;;;8.25;6.85;;;;;;;;;;5044257;28;20088;-68
2023/04/08 09:57:02;;;;;;;6.83;6.20;;;;;;;;;;5044992;28;20053;-68
2023/04/08 09:59:32;;;;;;;7.40;6.55;;;;;;;;;;5042109;28;20057;-68
2023/04/08 10:02:00;;;;;;;7.95;7.15;;;;;;;;;;5043013;28;20040;-68
2023/04/08 10:04:28;;;;;;;7.53;6.68;;;;;;;;;;5044265;28;20568;-68
2023/04/08 10:06:57;;;;;;;8.70;7.80;;;;;;;;;;5044726;28;20041;-68
2023/04/08 10:09:23;;;;;;;7.25;6.55;;;;;;;;;;5043578;28;20060;-69
2023/04/08 10:11:50;;;;;;;9.32;8.35;;;;;;;;;;5045168;28;20525;-68
2023/04/08 10:14:16;;;;;;;13.35;10.02;;;;;;;;;;5044632;28;20106;-68
2023/04/08 10:16:42;;;;;;;11.20;8.85;;;;;;;;;;5042937;28;20171;-69
2023/04/08 10:19:27;;;;;;;10.63;9.52;;;;;;;;;;5042551;28;20045;-69
2023/04/08 10:21:53;;;;;;;11.38;9.93;;;;;;;;;;5040969;28;20045;-68
2023/04/08 10:24:24;;;;;;;11.63;9.98;;;;;;;;;;5043280;28;20502;-69
2023/04/08 10:26:50;;;;;;;9.57;8.25;;;;;;;;;;5046722;28;20655;-69
2023/04/08 10:29:20;;;;;;;10.48;8.95;;;;;;;;;;5042864;28;20044;-69
2023/04/08 10:31:49;;;;;;;12.98;10.52;;;;;;;;;;5042814;28;20061;-69
2023/04/08 10:34:16;;;;;;;12.18;10.52;;;;;;;;;;5044708;28;20198;-69
2023/04/08 10:36:43;;;;;;;9.73;8.73;;;;;;;;;;5047085;28;20053;-69
2023/04/08 10:39:09;;;;;;;8.60;7.70;;;;;;;;;;5047084;28;20044;-68
2023/04/08 10:41:35;;;;;;;13.52;11.52;;;;;;;;;;5046875;28;20226;-69
2023/04/08 10:44:04;;;;;;;14.98;12.18;;;;;;;;;;5047380;28;20045;-69
2023/04/08 10:46:37;;;;;;;11.45;10.05;;;;;;;;;;5038368;28;20057;-69
2023/04/08 10:49:03;;;;;;;9.40;8.38;;;;;;;;;;5037132;28;20130;-70
2023/04/08 10:51:33;;;;;;;10.32;8.35;;;;;;;;;;5047938;28;20073;-69
2023/04/08 10:54:06;;;;;;;8.13;7.32;;;;;;;;;;5046068;28;20049;-70
2023/04/08 10:56:33;;;;;;;10.68;8.23;;;;;;;;;;5046838;28;20052;-70
2023/04/08 10:58:59;;;;;;;16.05;11.48;;;;;;;;;;5047846;28;20087;-69
2023/04/08 11:01:26;;;;;;;11.57;9.23;;;;;;;;;;5048224;28;20057;-69
2023/04/08 11:03:52;;;;;;;10.48;8.30;;;;;;;;;;5043027;28;20045;-68
2023/04/08 11:06:18;;;;;;;9.18;7.93;;;;;;;;;;5043215;28;20037;-67
2023/04/08 11:08:44;;;;;;;13.88;8.85;;;;;;;;;;5036817;28;20156;-68
2023/04/08 11:11:10;;;;;;;12.23;8.95;;;;;;;;;;5037953;28;20091;-68
2023/04/08 11:13:39;;;;;;;12.25;9.65;;;;;;;;;;5036241;28;20067;-69
2023/04/08 11:16:06;;;;;;;12.25;10.77;;;;;;;;;;5034833;28;20083;-70
2023/04/08 11:18:33;;;;;;;16.02;12.05;;;;;;;;;;5039385;28;20049;-68
2023/04/08 11:21:00;;;;;;;17.33;12.30;;;;;;;;;;5038512;28;20041;-68
2023/04/08 11:23:26;;;;;;;13.23;10.77;;;;;;;;;;5034778;28;20068;-68
2023/04/08 11:25:53;;;;;;;13.10;10.73;;;;;;;;;;5025464;28;20124;-68
2023/04/08 11:28:19;;;;;;;9.52;8.38;;;;;;;;;;5039251;28;20055;-68
2023/04/08 11:30:47;;;;;;;10.55;8.75;;;;;;;;;;5044600;28;20057;-69
2023/04/08 11:33:13;;;;;;;13.70;10.75;;;;;;;;;;5034719;28;20685;-69
2023/04/08 11:35:40;;;;;;;13.45;10.80;;;;;;;;;;5038046;28;20589;-69
2023/04/08 11:38:06;;;;;;;10.50;9.32;;;;;;;;;;5044089;28;20453;-70
2023/04/08 11:40:32;;;;;;;11.70;9.82;;;;;;;;;;5037683;28;20041;-70
2023/04/08 11:42:58;;;;;;;10.98;9.35;;;;;;;;;;5036245;28;20050;-70
2023/04/08 11:45:24;;;;;;;16.17;13.43;;;;;;;;;;5039386;28;20782;-70
2023/04/08 11:47:50;;;;;;;13.32;10.90;;;;;;;;;;5037842;28;20041;-70
2023/04/08 11:50:28;;;;;;;11.73;10.05;;;;;;;;;;5043209;28;20549;-70
2023/04/08 11:52:55;;;;;;;12.13;10.18;;;;;;;;;;5031406;28;20045;-71
2023/04/08 11:55:29;;;;;;;11.23;9.63;;;;;;;;;;5044885;28;20095;-70
2023/04/08 11:57:55;;;;;;;10.40;8.82;;;;;;;;;;5044498;28;20068;-71
2023/04/08 12:00:23;;;;;;;12.15;9.25;;;;;;;;;;5041664;28;20087;-70
2023/04/08 12:02:49;;;;;;;10.90;9.68;;;;;;;;;;5039544;28;20779;-69
2023/04/08 12:05:18;;;;;;;14.27;10.93;;;;;;;;;;5037712;28;20053;-68
2023/04/08 12:07:44;;;;;;;11.68;10.50;;;;;;;;;;5038586;28;20041;-69
2023/04/08 12:10:11;;;;;;;13.75;10.20;;;;;;;;;;5040281;28;20052;-69
2023/04/08 12:12:37;;;;;;;11.40;8.90;;;;;;;;;;5039978;28;20049;-70
2023/04/08 12:15:04;;;;;;;13.88;10.63;;;;;;;;;;5040844;28;20051;-69
2023/04/08 12:17:30;;;;;;;15.85;12.95;;;;;;;;;;5034485;28;20127;-68
2023/04/08 12:19:56;;;;;;;16.60;12.95;;;;;;;;;;5043137;28;20049;-68
2023/04/08 12:22:22;;;;;;;15.73;12.55;;;;;;;;;;5036402;28;20132;-68
2023/04/08 12:24:48;;;;;;;16.10;12.73;;;;;;;;;;5031837;28;20186;-68
2023/04/08 12:27:14;;;;;;;15.13;12.43;;;;;;;;;;5035604;28;20046;-68
2023/04/08 12:29:41;;;;;;;13.25;11.23;;;;;;;;;;5032553;28;20064;-68
2023/04/08 12:32:07;;;;;;;15.05;11.63;;;;;;;;;;5037415;28;20443;-68
2023/04/08 12:34:33;;;;;;;12.80;10.32;;;;;;;;;;5031832;28;20046;-68
2023/04/08 12:37:02;;;;;;;12.18;9.73;;;;;;;;;;5043889;28;20124;-68
2023/04/08 12:39:28;;;;;;;12.00;10.68;;;;;;;;;;5037781;28;20133;-68
2023/04/08 12:41:55;;;;;;;13.50;9.98;;;;;;;;;;5044817;28;20036;-68
2023/04/08 12:44:21;;;;;;;13.02;10.32;;;;;;;;;;5037027;28;20123;-68
2023/04/08 12:46:47;;;;;;;13.38;11.40;;;;;;;;;;5041714;28;20036;-68
2023/04/08 12:49:13;;;;;;;13.77;10.57;;;;;;;;;;5038673;28;20049;-68
2023/04/08 12:51:39;;;;;;;13.18;10.55;;;;;;;;;;5035225;28;20139;-68
2023/04/08 12:54:05;;;;;;;13.07;10.07;;;;;;;;;;5038488;28;20127;-68
2023/04/08 12:56:31;;;;;;;15.95;10.88;;;;;;;;;;5032949;28;20064;-70
2023/04/08 12:58:58;;;;;;;11.77;9.43;;;;;;;;;;5036035;28;20482;-70
2023/04/08 13:01:24;;;;;;;12.48;10.05;;;;;;;;;;5036603;28;20041;-69
2023/04/08 13:03:50;;;;;;;12.10;9.52;;;;;;;;;;5028453;28;20107;-69
2023/04/08 13:06:16;;;;;;;14.00;11.02;;;;;;;;;;5035760;28;20446;-68
2023/04/08 13:08:42;;;;;;;11.48;10.10;;;;;;;;;;5041790;28;20053;-68
2023/04/08 13:11:08;;;;;;;12.60;10.00;;;;;;;;;;5031065;28;20147;-68
2023/04/08 13:13:35;;;;;;;13.88;11.35;;;;;;;;;;5035859;28;20388;-68
2023/04/08 13:16:02;;;;;;;11.38;8.85;;;;;;;;;;5035988;28;20045;-69
2023/04/08 13:18:28;;;;;;;9.63;8.10;;;;;;;;;;5035338;28;20575;-68
2023/04/08 13:20:54;;;;;;;10.40;7.53;;;;;;;;;;5034754;28;20116;-68
2023/04/08 13:23:20;;;;;;;9.50;8.05;;;;;;;;;;5038671;28;20132;-69
2023/04/08 13:25:47;;;;;;;9.68;8.63;;;;;;;;;;5013551;28;20577;-70
2023/04/08 13:28:13;;;;;;;10.23;9.02;;;;;;;;;;5031026;28;20049;-68
2023/04/08 13:30:39;;;;;;;9.20;8.05;;;;;;;;;;5037624;28;20053;-69
2023/04/08 13:33:05;;;;;;;10.27;8.05;;;;;;;;;;5036550;28;20574;-69
2023/04/08 13:35:31;;;;;;;8.93;8.02;;;;;;;;;;5031969;28;20049;-69
2023/04/08 13:37:57;;;;;;;10.05;9.02;;;;;;;;;;5031952;28;20040;-70
2023/04/08 13:40:24;;;;;;;8.70;7.80;;;;;;;;;;5033853;28;20049;-70
2023/04/08 13:42:50;;;;;;;8.80;7.90;;;;;;;;;;5039757;28;20056;-71
2023/04/08 13:45:16;;;;;;;8.05;7.30;;;;;;;;;;5031226;28;20587;-70
2023/04/08 13:47:42;;;;;;;7.40;6.60;;;;;;;;;;5034073;28;20283;-70
2023/04/08 13:50:08;;;;;;;8.00;7.25;;;;;;;;;;5037645;28;20040;-70
2023/04/08 13:52:37;;;;;;;8.07;7.38;;;;;;;;;;5033659;28;20442;-70
2023/04/08 13:55:04;;;;;;;6.97;6.38;;;;;;;;;;5038500;28;20127;-70
2023/04/08 13:57:30;;;;;;;5.32;4.82;;;;;;;;;;5038948;28;20399;-71
2023/04/08 13:59:56;;;;;;;4.45;4.10;;;;;;;;;;5039960;28;20507;-70
2023/04/08 14:02:23;;;;;;;4.13;3.78;;;;;;;;;;5043581;28;20087;-70
2023/04/08 14:04:49;;;;;;;5.10;4.60;;;;;;;;;;5047159;28;20107;-71
2023/04/08 14:07:15;;;;;;;4.75;4.35;;;;;;;;;;5037890;28;20043;-71
2023/04/08 14:09:41;;;;;;;3.90;3.53;;;;;;;;;;5044485;28;20076;-70
2023/04/08 14:12:07;;;;;;;4.10;3.80;;;;;;;;;;5047444;28;20044;-71
2023/04/08 14:14:33;;;;;;;4.65;4.25;;;;;;;;;;5042107;28;20048;-70
2023/04/08 14:17:00;;;;;;;6.03;5.53;;;;;;;;;;5037969;28;20061;-69
2023/04/08 14:19:26;;;;;;;6.78;6.18;;;;;;;;;;5039780;28;20049;-70
2023/04/08 14:21:52;;;;;;;6.68;6.00;;;;;;;;;;5038206;28;20040;-70
2023/04/08 14:24:18;;;;;;;8.15;6.95;;;;;;;;;;5037038;28;20041;-70
2023/04/08 14:26:44;;;;;;;6.47;5.88;;;;;;;;;;5034950;28;20044;-70
2023/04/08 14:29:10;;;;;;;9.70;7.15;;;;;;;;;;5032341;28;20376;-71
2023/04/08 14:31:36;;;;;;;6.97;5.88;;;;;;;;;;5039652;28;20052;-69
2023/04/08 14:34:02;;;;;;;5.95;5.28;;;;;;;;;;5033141;28;20049;-70
2023/04/08 14:36:30;;;;;;;5.90;5.40;;;;;;;;;;5036308;28;20613;-70